Time;durP1;ratioP1;P1;durP2;ratioP2;P2;SDS_P1;SDS_P2;PMS_P1;PMS_P2;Temp;Humidity;BMP_temperature;BMP_pressure;BME280_temperature;BME280_humidity;BME280_pressure;Samples;Min_cycle;Max_cycle;Signal;HPM_P1;HPM_P2
2024/01/25 00:06:31;;;;;;;3.28;1.50;;;;;;;20.44;47.81;97228.84;20509194;28;20074;-73
2024/01/25 00:16:51;;;;;;;4.32;2.05;;;;;;;20.39;47.85;97231.72;20566886;28;20054;-73
2024/01/25 00:27:11;;;;;;;3.17;1.50;;;;;;;20.37;47.69;97236.66;20591840;28;20051;-73
2024/01/25 00:37:30;;;;;;;3.45;1.73;;;;;;;20.32;47.68;97240.31;20535646;28;20055;-73
2024/01/25 00:47:51;;;;;;;3.53;1.50;;;;;;;20.27;47.69;97246.69;20501858;28;20050;-73
2024/01/25 00:58:10;;;;;;;3.00;1.42;;;;;;;20.22;47.54;97257.66;20488341;28;20431;-73
2024/01/25 01:08:30;;;;;;;3.20;1.42;;;;;;;20.23;47.53;97275.50;20515249;28;20051;-73
2024/01/25 01:18:50;;;;;;;2.72;1.38;;;;;;;20.18;47.57;97270.22;20552996;28;20054;-73
2024/01/25 01:29:09;;;;;;;3.85;1.50;;;;;;;20.13;47.48;97267.66;20590734;28;20459;-73
2024/01/25 01:39:29;;;;;;;3.05;1.48;;;;;;;20.08;47.37;97267.84;20520034;28;20059;-73
2024/01/25 01:49:48;;;;;;;2.47;1.52;;;;;;;20.05;47.37;97260.34;20549048;28;20055;-73
2024/01/25 02:00:09;;;;;;;1.95;1.20;;;;;;;20.03;47.34;97265.25;20564555;28;20063;-75
2024/01/25 02:10:31;;;;;;;2.75;1.27;;;;;;;20.01;47.37;97262.88;20525892;28;20488;-75
2024/01/25 02:20:50;;;;;;;2.30;1.30;;;;;;;19.98;47.24;97236.47;20508697;28;20055;-75
2024/01/25 02:31:09;;;;;;;2.33;1.42;;;;;;;19.95;47.15;97231.69;20516466;28;20070;-75
2024/01/25 02:41:30;;;;;;;2.60;1.17;;;;;;;19.92;47.25;97219.59;20535498;28;20055;-75
2024/01/25 02:51:49;;;;;;;2.40;1.30;;;;;;;19.90;47.24;97232.66;20534969;28;20543;-75
2024/01/25 03:02:09;;;;;;;1.52;1.00;;;;;;;19.85;47.03;97250.91;20561973;28;20060;-75
2024/01/25 03:12:28;;;;;;;2.80;1.30;;;;;;;19.82;46.98;97254.28;20544622;28;20082;-75
2024/01/25 03:22:47;;;;;;;2.17;1.23;;;;;;;19.78;46.92;97259.50;20579113;28;20150;-75
2024/01/25 03:33:07;;;;;;;1.85;1.05;;;;;;;19.73;47.12;97265.84;20508476;28;20055;-75
2024/01/25 03:43:26;;;;;;;2.25;1.27;;;;;;;19.71;47.04;97259.94;20524608;28;20070;-75
2024/01/25 03:53:45;;;;;;;1.77;1.00;;;;;;;19.70;46.99;97289.97;20570227;28;20102;-75
2024/01/25 04:04:05;;;;;;;1.40;0.93;;;;;;;19.67;47.00;97291.38;20578092;28;20443;-74
2024/01/25 04:14:24;;;;;;;1.30;1.00;;;;;;;19.64;46.88;97266.88;20564171;28;20126;-73
2024/01/25 04:24:44;;;;;;;1.10;0.90;;;;;;;19.62;47.03;97251.00;20558243;28;20150;-73
2024/01/25 04:35:04;;;;;;;1.65;1.02;;;;;;;19.56;46.98;97253.06;20575188;28;20101;-73
2024/01/25 04:45:23;;;;;;;1.38;0.93;;;;;;;19.55;46.93;97274.97;20553316;28;20109;-73
2024/01/25 04:55:43;;;;;;;1.10;0.82;;;;;;;19.52;46.88;97279.09;20554685;28;20059;-72
2024/01/25 05:06:02;;;;;;;1.45;0.90;;;;;;;19.48;46.97;97278.13;20561457;28;20063;-72
2024/01/25 05:16:22;;;;;;;1.38;1.00;;;;;;;19.51;47.40;97277.50;20540628;28;20067;-73
2024/01/25 05:26:41;;;;;;;2.83;0.90;;;;;;;19.55;47.81;97261.47;20523317;28;20055;-72
2024/01/25 05:37:01;;;;;;;4.05;1.10;;;;;;;19.61;47.51;97287.22;20544976;28;20137;-72
2024/01/25 05:47:21;;;;;;;3.55;0.90;;;;;;;19.67;47.32;97290.59;20551710;28;20046;-75
2024/01/25 05:57:43;;;;;;;3.30;0.98;;;;;;;19.71;47.68;97302.38;20537441;28;20183;-75
2024/01/25 06:08:02;;;;;;;5.72;1.90;;;;;;;19.71;43.54;97318.59;20523917;28;20621;-75
2024/01/25 06:18:22;;;;;;;5.75;1.70;;;;;;;19.73;46.08;97311.00;20526656;28;20055;-75
2024/01/25 06:28:41;;;;;;;13.45;2.85;;;;;;;19.77;45.30;97319.28;20534226;28;20451;-72
2024/01/25 06:39:01;;;;;;;11.43;3.00;;;;;;;19.85;45.88;97335.53;20489439;28;20055;-72
2024/01/25 06:49:20;;;;;;;11.13;2.72;;;;;;;19.91;45.80;97334.28;20507481;28;20051;-72
2024/01/25 06:59:40;;;;;;;8.55;3.40;;;;;;;19.95;46.03;97354.19;20535052;28;20081;-72
2024/01/25 07:09:59;;;;;;;8.73;2.67;;;;;;;20.02;45.95;97350.22;20575414;28;20108;-72
2024/01/25 07:20:19;;;;;;;10.70;3.13;;;;;;;20.09;45.99;97358.66;20599465;28;20050;-72
2024/01/25 07:30:38;;;;;;;9.95;2.60;;;;;;;20.15;45.94;97352.03;20609361;28;20054;-72
2024/01/25 07:40:57;;;;;;;10.48;3.10;;;;;;;20.20;45.79;97353.78;20576735;28;20525;-76
2024/01/25 07:51:17;;;;;;;6.03;2.78;;;;;;;20.28;45.80;97358.41;20537965;28;20061;-76
2024/01/25 08:01:36;;;;;;;7.10;2.85;;;;;;;20.31;45.67;97374.81;20544505;28;20063;-75
2024/01/25 08:11:55;;;;;;;4.63;2.65;;;;;;;20.40;45.56;97409.19;20604600;28;20047;-72
2024/01/25 08:22:15;;;;;;;6.40;2.55;;;;;;;20.45;45.57;97412.56;20542121;28;20062;-72
2024/01/25 08:32:34;;;;;;;6.25;2.42;;;;;;;20.50;45.35;97425.13;20551927;28;20051;-72
2024/01/25 08:42:54;;;;;;;5.57;2.33;;;;;;;20.54;45.43;97426.09;20581809;28;20055;-73
2024/01/25 08:53:13;;;;;;;6.57;2.22;;;;;;;20.63;45.31;97437.78;20538703;28;20051;-75
2024/01/25 09:03:32;;;;;;;5.88;2.30;;;;;;;20.70;45.00;97435.41;20529357;28;20059;-76
2024/01/25 09:13:52;;;;;;;4.80;2.35;;;;;;;20.76;44.92;97424.41;20543924;28;20059;-76
2024/01/25 09:24:12;;;;;;;4.65;2.40;;;;;;;20.79;44.71;97437.34;20607999;28;20066;-75
2024/01/25 09:34:32;;;;;;;4.00;2.13;;;;;;;20.84;44.49;97442.63;20513840;28;20062;-75
2024/01/25 09:44:54;;;;;;;5.93;2.28;;;;;;;20.92;44.43;97441.81;20554183;28;20051;-76
2024/01/25 09:55:14;;;;;;;5.85;2.08;;;;;;;20.96;44.23;97437.34;20563125;28;20070;-76
2024/01/25 10:05:42;;;;;;;4.22;1.80;;;;;;;21.03;44.17;97451.25;21055529;27;20381;-56
2024/01/25 10:16:01;;;;;;;3.70;1.95;;;;;;;21.07;44.04;97457.63;21082396;28;20048;-56
2024/01/25 10:26:21;;;;;;;3.67;1.83;;;;;;;21.12;44.12;97473.69;21055032;28;20085;-57
2024/01/25 10:36:41;;;;;;;2.90;1.70;;;;;;;21.14;43.96;97476.09;21054124;28;20052;-57
2024/01/25 10:47:01;;;;;;;3.03;1.63;;;;;;;21.21;43.81;97481.03;21052117;28;20106;-57
2024/01/25 10:57:20;;;;;;;4.65;1.92;;;;;;;21.21;43.85;97489.16;21050644;28;20056;-56
2024/01/25 11:07:53;;;;;;;3.10;1.80;;;;;;;21.20;43.95;97490.28;21047004;28;20052;-56
2024/01/25 11:18:12;;;;;;;2.78;1.65;;;;;;;21.23;43.88;97478.78;21021320;28;20040;-56
2024/01/25 11:28:32;;;;;;;3.45;1.63;;;;;;;21.21;43.63;97459.34;21020025;28;20094;-57
2024/01/25 11:38:52;;;;;;;3.50;1.70;;;;;;;21.18;43.97;97454.59;20991191;28;20959;-57
2024/01/25 11:49:12;;;;;;;2.75;1.40;;;;;;;21.17;43.99;97440.25;20990817;28;20056;-56
2024/01/25 11:59:31;;;;;;;2.75;1.95;;;;;;;21.18;43.66;97443.75;20907781;28;20049;-56
2024/01/25 12:10:17;;;;;;;2.10;1.45;;;;;;;21.17;43.91;97448.38;20910592;28;20059;-56
2024/01/25 12:20:37;;;;;;;2.60;1.53;;;;;;;21.13;44.05;97474.50;20988038;28;20049;-56
2024/01/25 12:30:57;;;;;;;2.03;1.42;;;;;;;21.06;43.99;97488.50;21015839;28;20666;-59
2024/01/25 12:41:16;;;;;;;1.60;1.30;;;;;;;21.03;44.06;97521.66;20986365;28;20045;-58
2024/01/25 12:51:35;;;;;;;2.13;1.30;;;;;;;21.05;44.20;97532.16;20986687;28;20045;-59
2024/01/25 13:01:55;;;;;;;1.83;1.20;;;;;;;21.02;44.13;97554.47;20985848;28;20060;-59
2024/01/25 13:12:14;;;;;;;2.75;1.30;;;;;;;21.00;44.16;97535.84;20986107;28;20049;-58
2024/01/25 13:22:34;;;;;;;1.95;1.23;;;;;;;20.94;44.19;97529.75;20985639;28;20055;-58
2024/01/25 13:32:53;;;;;;;2.03;1.15;;;;;;;20.90;44.35;97541.56;20981773;28;20057;-59
2024/01/25 13:43:13;;;;;;;1.70;1.38;;;;;;;20.88;44.12;97543.78;20982602;28;20055;-56
2024/01/25 13:53:32;;;;;;;1.20;1.00;;;;;;;20.85;44.20;97553.31;21009725;28;20051;-57
2024/01/25 14:03:52;;;;;;;1.77;1.15;;;;;;;20.81;44.40;97519.06;20986757;28;20561;-56
2024/01/25 14:14:11;;;;;;;1.20;0.80;;;;;;;20.79;44.30;97542.94;20982911;28;20060;-57
2024/01/25 14:24:30;;;;;;;1.75;1.00;;;;;;;20.75;44.47;97567.13;20980149;28;20045;-56
2024/01/25 14:34:50;;;;;;;2.00;1.10;;;;;;;20.69;44.53;97590.06;21008807;28;20049;-56
2024/01/25 14:45:10;;;;;;;1.20;1.00;;;;;;;20.64;44.62;97591.00;20984224;28;20415;-59
2024/01/25 14:55:29;;;;;;;1.38;0.88;;;;;;;20.62;44.73;97600.53;20996853;28;20544;-56
2024/01/25 15:05:48;;;;;;;1.40;1.10;;;;;;;20.53;41.61;97603.97;21010312;28;20051;-58
2024/01/25 15:16:08;;;;;;;1.80;1.20;;;;;;;20.50;42.99;97598.38;20958948;28;20057;-58
2024/01/25 15:26:28;;;;;;;3.70;1.63;;;;;;;20.52;45.46;97591.56;20957481;28;20068;-58
2024/01/25 15:36:47;;;;;;;3.15;1.50;;;;;;;20.50;44.04;97592.94;20973093;28;20041;-59
2024/01/25 15:47:07;;;;;;;4.03;1.70;;;;;;;20.44;42.42;97599.63;20989995;28;20048;-60
2024/01/25 15:57:27;;;;;;;3.58;1.40;;;;;;;20.36;41.58;97603.88;20992585;28;20044;-59
2024/01/25 16:07:48;;;;;;;3.58;1.70;;;;;;;20.35;42.17;97621.22;21015105;28;20404;-59
2024/01/25 16:18:08;;;;;;;2.65;1.45;;;;;;;20.32;42.49;97632.66;20994221;28;20052;-58
2024/01/25 16:28:28;;;;;;;9.30;1.48;;;;;;;20.29;43.13;97647.59;21033812;28;20480;-58
2024/01/25 16:38:47;;;;;;;3.13;1.25;;;;;;;20.25;43.64;97640.44;21017297;28;20064;-57
2024/01/25 16:49:07;;;;;;;2.58;1.40;;;;;;;20.22;44.01;97644.53;21003397;28;20385;-57
2024/01/25 16:59:27;;;;;;;4.88;1.30;;;;;;;20.21;44.44;97656.47;20960521;28;20063;-57
2024/01/25 17:09:47;;;;;;;2.38;1.17;;;;;;;20.20;44.88;97673.81;20983747;28;20040;-57
2024/01/25 17:20:07;;;;;;;5.50;1.25;;;;;;;20.20;45.00;97676.50;20937717;28;20106;-57
2024/01/25 17:30:26;;;;;;;3.97;1.17;;;;;;;20.19;45.16;97668.69;20981527;28;20044;-56
2024/01/25 17:40:45;;;;;;;2.90;1.23;;;;;;;20.20;45.39;97662.97;20935546;28;20640;-58
2024/01/25 17:51:06;;;;;;;2.47;1.27;;;;;;;20.22;45.46;97674.28;21001231;28;20044;-57
2024/01/25 18:01:25;;;;;;;6.05;1.05;;;;;;;20.25;45.71;97689.91;20918122;28;20061;-57
2024/01/25 18:11:45;;;;;;;2.70;0.90;;;;;;;20.30;45.87;97697.91;20953931;28;20041;-59
2024/01/25 18:22:04;;;;;;;2.55;1.05;;;;;;;20.35;45.79;97695.09;20960047;28;21375;-58
2024/01/25 18:32:24;;;;;;;1.95;1.02;;;;;;;20.35;45.67;97702.41;20971463;28;20459;-59
2024/01/25 18:42:44;;;;;;;3.85;1.30;;;;;;;20.40;45.59;97706.88;20935202;28;20056;-59
2024/01/25 18:53:04;;;;;;;1.30;0.80;;;;;;;20.44;45.63;97713.28;19956524;28;10000845;-60
2024/01/25 19:03:24;;;;;;;2.20;1.10;;;;;;;20.48;45.83;97712.38;20822792;28;20054;-59
2024/01/25 19:13:43;;;;;;;1.17;0.90;;;;;;;20.55;45.99;97703.81;20819666;28;20056;-59
2024/01/25 19:24:04;;;;;;;1.50;1.02;;;;;;;20.58;45.92;97708.63;20855598;28;20482;-57
2024/01/25 19:34:24;;;;;;;1.77;0.93;;;;;;;20.62;46.13;97703.41;20806087;28;20048;-57
2024/01/25 19:44:44;;;;;;;2.75;1.10;;;;;;;20.69;46.63;97698.34;20813611;28;20454;-62
2024/01/25 19:55:04;;;;;;;4.43;1.23;;;;;;;20.67;47.38;97693.25;20823472;28;20052;-62
2024/01/25 20:05:24;;;;;;;5.07;1.20;;;;;;;20.69;47.55;97703.78;20821592;28;20053;-63
2024/01/25 20:15:43;;;;;;;4.22;1.10;;;;;;;20.72;47.78;97716.69;20822659;28;20474;-60
2024/01/25 20:26:03;;;;;;;2.78;0.98;;;;;;;20.73;47.84;97710.16;20791454;28;20057;-58
2024/01/25 20:36:23;;;;;;;1.52;0.90;;;;;;;20.76;47.86;97720.38;20820083;28;20057;-55
2024/01/25 20:46:43;;;;;;;4.82;1.10;;;;;;;20.74;47.58;97725.31;20827063;28;20045;-61
2024/01/25 20:57:02;;;;;;;3.13;0.90;;;;;;;20.74;47.98;97728.03;20820161;28;20057;-61
2024/01/25 21:07:22;;;;;;;2.08;1.20;;;;;;;20.72;47.81;97728.31;20819357;28;20053;-59
2024/01/25 21:17:42;;;;;;;1.92;1.00;;;;;;;20.69;47.93;97726.22;20820772;28;20052;-61
2024/01/25 21:28:06;;;;;;;3.45;1.10;;;;;;;20.67;47.96;97714.91;20828291;28;20085;-62
2024/01/25 21:38:25;;;;;;;1.65;0.90;;;;;;;20.67;48.10;97720.31;20818334;28;20046;-61
2024/01/25 21:48:45;;;;;;;2.80;1.00;;;;;;;20.66;48.34;97729.56;20822769;28;20049;-61
2024/01/25 21:59:05;;;;;;;3.20;1.40;;;;;;;20.64;48.47;97731.78;20853647;28;20413;-60
2024/01/25 22:09:24;;;;;;;2.63;1.00;;;;;;;20.64;48.40;97733.66;20911191;28;20056;-60
2024/01/25 22:19:44;;;;;;;2.58;1.30;;;;;;;20.63;48.35;97743.72;20968118;28;20041;-61
2024/01/25 22:30:04;;;;;;;2.35;1.10;;;;;;;20.59;48.29;97737.31;20916546;28;20053;-60
2024/01/25 22:40:24;;;;;;;1.42;0.88;;;;;;;20.58;48.30;97741.13;20955058;28;20091;-61
2024/01/25 22:50:43;;;;;;;2.97;1.00;;;;;;;20.58;48.31;97746.53;20944821;28;20045;-60
2024/01/25 23:01:03;;;;;;;1.73;1.10;;;;;;;20.54;48.03;97749.03;20927821;28;20452;-59
2024/01/25 23:11:22;;;;;;;2.85;1.10;;;;;;;20.46;47.90;97749.75;20940755;28;20048;-59
2024/01/25 23:21:42;;;;;;;2.95;0.85;;;;;;;20.40;48.16;97744.78;20927509;28;20091;-59
2024/01/25 23:32:01;;;;;;;1.50;0.88;;;;;;;20.39;48.24;97735.06;20944165;28;20437;-59
2024/01/25 23:42:20;;;;;;;2.10;1.00;;;;;;;20.35;48.07;97741.09;21005468;28;20049;-59
2024/01/25 23:52:39;;;;;;;1.35;0.90;;;;;;;20.32;48.24;97744.41;20965278;28;20048;-59
